KJZI

Charleston Executive Airport

Charleston, South Carolina, USA
METAR KJZI 220035Z AUTO 12006KT 9SM BKN055 20/20 A3044 RMK AO2
Observed Flight Rules
Feb-22 @ 00:35 UTC (4 hours ago) Visual Flight Rules
Wind Visibility Clouds
120° at 6 knots 9 miles
  • Broken at 5,500' AGL
Temperatures Readings
Current 20°C / 68°F
Dewpoint 20°C / 68°F
Humidity 100%
Altimeter 30.44" Hg
Pressure 1031 hPa
Elevation 6
METAR KJZI 220035Z AUTO 12006KT 9SM BKN055 20/20 A3044 RMK AO2
Observed Flight Rules
Feb-22 @ 00:35 UTC
(4 hours ago)
VFR
Wind Visibility
120° at 6 knots 9 miles
Clouds
  • Broken at 5,500' AGL
Temperature Dewpoint
20°C / 68°F 20°C / 68°F
Humidity Altimeter Pressure
100% 30.44" Hg 1031 hPa